sensor_id;sensor_type;location;lat;lon;timestamp;temperature;humidity
37002;DHT22;22913;51.910;8.374;2022-11-23T00:01:54;7.90;99.90
37002;DHT22;22913;51.910;8.374;2022-11-23T00:04:40;7.90;99.90
37002;DHT22;22913;51.910;8.374;2022-11-23T00:07:26;7.80;99.90
37002;DHT22;22913;51.910;8.374;2022-11-23T00:10:12;7.80;99.90
37002;DHT22;22913;51.910;8.374;2022-11-23T00:12:57;7.80;99.90
37002;DHT22;22913;51.910;8.374;2022-11-23T00:15:45;7.90;99.90
37002;DHT22;22913;51.910;8.374;2022-11-23T00:18:30;7.90;99.90
37002;DHT22;22913;51.910;8.374;2022-11-23T00:21:17;7.90;99.90
37002;DHT22;22913;51.910;8.374;2022-11-23T00:24:04;7.90;99.90
37002;DHT22;22913;51.910;8.374;2022-11-23T00:26:50;7.90;99.90
37002;DHT22;22913;51.910;8.374;2022-11-23T00:29:35;7.90;99.90
37002;DHT22;22913;51.910;8.374;2022-11-23T00:32:22;7.90;99.90
37002;DHT22;22913;51.910;8.374;2022-11-23T00:35:08;7.90;99.90
37002;DHT22;22913;51.910;8.374;2022-11-23T00:37:54;7.90;99.90
37002;DHT22;22913;51.910;8.374;2022-11-23T00:40:40;8.00;99.90
37002;DHT22;22913;51.910;8.374;2022-11-23T00:43:26;7.90;99.90
37002;DHT22;22913;51.910;8.374;2022-11-23T00:46:13;8.00;99.90
37002;DHT22;22913;51.910;8.374;2022-11-23T00:49:01;8.00;99.90
37002;DHT22;22913;51.910;8.374;2022-11-23T00:51:47;7.90;99.90
37002;DHT22;22913;51.910;8.374;2022-11-23T00:54:33;7.90;99.90
37002;DHT22;22913;51.910;8.374;2022-11-23T00:57:18;7.90;99.90
37002;DHT22;22913;51.910;8.374;2022-11-23T01:00:06;7.90;99.90
37002;DHT22;22913;51.910;8.374;2022-11-23T01:02:52;8.00;99.90
37002;DHT22;22913;51.910;8.374;2022-11-23T01:05:39;8.00;99.90
37002;DHT22;22913;51.910;8.374;2022-11-23T01:08:24;8.00;99.90
37002;DHT22;22913;51.910;8.374;2022-11-23T01:11:11;8.00;99.90
37002;DHT22;22913;51.910;8.374;2022-11-23T01:13:57;8.00;99.90
37002;DHT22;22913;51.910;8.374;2022-11-23T01:16:43;8.00;99.90
37002;DHT22;22913;51.910;8.374;2022-11-23T01:19:29;8.00;99.90
37002;DHT22;22913;51.910;8.374;2022-11-23T01:22:16;8.10;99.90
37002;DHT22;22913;51.910;8.374;2022-11-23T01:25:04;8.10;99.90
37002;DHT22;22913;51.910;8.374;2022-11-23T01:27:49;8.10;99.90
37002;DHT22;22913;51.910;8.374;2022-11-23T01:30:35;8.20;99.90
37002;DHT22;22913;51.910;8.374;2022-11-23T01:33:21;8.20;99.90
37002;DHT22;22913;51.910;8.374;2022-11-23T01:36:10;8.20;99.90
37002;DHT22;22913;51.910;8.374;2022-11-23T01:38:59;8.30;99.90
37002;DHT22;22913;51.910;8.374;2022-11-23T01:41:46;8.30;99.90
37002;DHT22;22913;51.910;8.374;2022-11-23T01:44:33;8.30;99.90
37002;DHT22;22913;51.910;8.374;2022-11-23T01:47:19;8.40;99.90
37002;DHT22;22913;51.910;8.374;2022-11-23T01:50:05;8.40;99.90
37002;DHT22;22913;51.910;8.374;2022-11-23T01:52:51;8.40;99.90
37002;DHT22;22913;51.910;8.374;2022-11-23T01:55:39;8.50;99.90
37002;DHT22;22913;51.910;8.374;2022-11-23T01:58:26;8.50;99.90
37002;DHT22;22913;51.910;8.374;2022-11-23T02:01:13;8.50;99.90
37002;DHT22;22913;51.910;8.374;2022-11-23T02:04:00;8.60;99.90
37002;DHT22;22913;51.910;8.374;2022-11-23T02:06:47;8.60;99.90
37002;DHT22;22913;51.910;8.374;2022-11-23T02:09:34;8.60;99.90
37002;DHT22;22913;51.910;8.374;2022-11-23T02:12:22;8.60;99.90
37002;DHT22;22913;51.910;8.374;2022-11-23T02:15:08;8.70;99.90
37002;DHT22;22913;51.910;8.374;2022-11-23T02:17:54;8.70;99.90
37002;DHT22;22913;51.910;8.374;2022-11-23T02:20:42;8.60;99.90
37002;DHT22;22913;51.910;8.374;2022-11-23T02:23:33;8.70;99.90
37002;DHT22;22913;51.910;8.374;2022-11-23T02:26:25;8.70;99.90
37002;DHT22;22913;51.910;8.374;2022-11-23T02:29:16;8.80;99.90
37002;DHT22;22913;51.910;8.374;2022-11-23T02:32:05;8.70;99.90
37002;DHT22;22913;51.910;8.374;2022-11-23T02:34:51;8.70;99.90
37002;DHT22;22913;51.910;8.374;2022-11-23T02:37:37;8.70;99.90
37002;DHT22;22913;51.910;8.374;2022-11-23T02:40:27;8.80;99.90
37002;DHT22;22913;51.910;8.374;2022-11-23T02:43:14;8.80;99.90
37002;DHT22;22913;51.910;8.374;2022-11-23T02:46:01;8.80;99.90
37002;DHT22;22913;51.910;8.374;2022-11-23T02:48:48;8.90;99.90
37002;DHT22;22913;51.910;8.374;2022-11-23T02:51:34;8.90;99.90
37002;DHT22;22913;51.910;8.374;2022-11-23T02:54:19;8.90;99.90
37002;DHT22;22913;51.910;8.374;2022-11-23T02:57:05;8.90;99.90
37002;DHT22;22913;51.910;8.374;2022-11-23T02:59:52;8.90;99.90
37002;DHT22;22913;51.910;8.374;2022-11-23T03:02:38;9.00;99.90
37002;DHT22;22913;51.910;8.374;2022-11-23T03:05:24;8.90;99.90
37002;DHT22;22913;51.910;8.374;2022-11-23T03:08:10;8.80;99.90
37002;DHT22;22913;51.910;8.374;2022-11-23T03:10:55;8.90;99.90
37002;DHT22;22913;51.910;8.374;2022-11-23T03:13:41;8.90;99.90
37002;DHT22;22913;51.910;8.374;2022-11-23T03:16:29;8.90;99.90
37002;DHT22;22913;51.910;8.374;2022-11-23T03:19:16;8.90;99.90
37002;DHT22;22913;51.910;8.374;2022-11-23T03:22:02;8.90;99.90
37002;DHT22;22913;51.910;8.374;2022-11-23T03:24:48;8.90;99.90
37002;DHT22;22913;51.910;8.374;2022-11-23T03:27:33;8.90;99.90
37002;DHT22;22913;51.910;8.374;2022-11-23T03:30:19;8.90;99.90
37002;DHT22;22913;51.910;8.374;2022-11-23T03:33:06;8.90;99.90
37002;DHT22;22913;51.910;8.374;2022-11-23T03:35:52;8.90;99.90
37002;DHT22;22913;51.910;8.374;2022-11-23T03:38:37;8.80;99.90
37002;DHT22;22913;51.910;8.374;2022-11-23T03:41:23;8.70;99.90
37002;DHT22;22913;51.910;8.374;2022-11-23T03:44:08;8.70;99.90
37002;DHT22;22913;51.910;8.374;2022-11-23T03:46:55;8.70;99.90
37002;DHT22;22913;51.910;8.374;2022-11-23T03:49:44;8.80;99.90
37002;DHT22;22913;51.910;8.374;2022-11-23T03:52:32;8.70;99.90
37002;DHT22;22913;51.910;8.374;2022-11-23T03:55:18;8.60;99.90
37002;DHT22;22913;51.910;8.374;2022-11-23T03:58:04;8.60;99.90
37002;DHT22;22913;51.910;8.374;2022-11-23T04:00:50;8.60;99.90
37002;DHT22;22913;51.910;8.374;2022-11-23T04:03:35;8.60;99.90
37002;DHT22;22913;51.910;8.374;2022-11-23T04:06:23;8.50;99.90
37002;DHT22;22913;51.910;8.374;2022-11-23T04:09:10;8.60;99.90
37002;DHT22;22913;51.910;8.374;2022-11-23T04:11:56;8.60;99.90
37002;DHT22;22913;51.910;8.374;2022-11-23T04:14:42;8.60;99.90
37002;DHT22;22913;51.910;8.374;2022-11-23T04:17:27;8.50;99.90
37002;DHT22;22913;51.910;8.374;2022-11-23T04:20:13;8.50;99.90
37002;DHT22;22913;51.910;8.374;2022-11-23T04:23:00;8.50;99.90
37002;DHT22;22913;51.910;8.374;2022-11-23T04:25:46;8.50;99.90
37002;DHT22;22913;51.910;8.374;2022-11-23T04:28:32;8.50;99.90
37002;DHT22;22913;51.910;8.374;2022-11-23T04:31:17;8.60;99.90
37002;DHT22;22913;51.910;8.374;2022-11-23T04:34:03;8.50;99.90
37002;DHT22;22913;51.910;8.374;2022-11-23T04:36:55;8.50;99.90
37002;DHT22;22913;51.910;8.374;2022-11-23T04:39:42;8.50;99.90
37002;DHT22;22913;51.910;8.374;2022-11-23T04:42:28;8.40;99.90
37002;DHT22;22913;51.910;8.374;2022-11-23T04:45:14;8.40;99.90
37002;DHT22;22913;51.910;8.374;2022-11-23T04:48:00;8.40;99.90
37002;DHT22;22913;51.910;8.374;2022-11-23T04:50:45;8.40;99.90
37002;DHT22;22913;51.910;8.374;2022-11-23T04:53:31;8.40;99.90
37002;DHT22;22913;51.910;8.374;2022-11-23T04:56:17;8.40;99.90
37002;DHT22;22913;51.910;8.374;2022-11-23T04:59:03;8.40;99.90
37002;DHT22;22913;51.910;8.374;2022-11-23T05:01:48;8.40;99.90
37002;DHT22;22913;51.910;8.374;2022-11-23T05:04:35;8.40;99.90
37002;DHT22;22913;51.910;8.374;2022-11-23T05:07:21;8.40;99.90
37002;DHT22;22913;51.910;8.374;2022-11-23T05:10:08;8.40;99.90
37002;DHT22;22913;51.910;8.374;2022-11-23T05:12:55;8.30;99.90
37002;DHT22;22913;51.910;8.374;2022-11-23T05:15:40;8.40;99.90
37002;DHT22;22913;51.910;8.374;2022-11-23T05:18:26;8.40;99.90
37002;DHT22;22913;51.910;8.374;2022-11-23T05:21:12;8.40;99.90
37002;DHT22;22913;51.910;8.374;2022-11-23T05:23:58;8.50;99.90
37002;DHT22;22913;51.910;8.374;2022-11-23T05:26:43;8.50;99.90
37002;DHT22;22913;51.910;8.374;2022-11-23T05:29:30;8.50;99.90
37002;DHT22;22913;51.910;8.374;2022-11-23T05:32:16;8.50;99.90
37002;DHT22;22913;51.910;8.374;2022-11-23T05:35:02;8.50;99.90
37002;DHT22;22913;51.910;8.374;2022-11-23T05:37:48;8.50;99.90
37002;DHT22;22913;51.910;8.374;2022-11-23T05:40:33;8.50;99.90
37002;DHT22;22913;51.910;8.374;2022-11-23T05:43:19;8.50;99.90
37002;DHT22;22913;51.910;8.374;2022-11-23T05:46:06;8.50;99.90
37002;DHT22;22913;51.910;8.374;2022-11-23T05:48:52;8.50;99.90
37002;DHT22;22913;51.910;8.374;2022-11-23T05:51:37;8.50;99.90
37002;DHT22;22913;51.910;8.374;2022-11-23T05:54:23;8.60;99.90
37002;DHT22;22913;51.910;8.374;2022-11-23T05:57:09;8.50;99.90
37002;DHT22;22913;51.910;8.374;2022-11-23T05:59:55;8.60;99.90
37002;DHT22;22913;51.910;8.374;2022-11-23T06:02:43;8.60;99.90
37002;DHT22;22913;51.910;8.374;2022-11-23T06:05:29;8.60;99.90
37002;DHT22;22913;51.910;8.374;2022-11-23T06:08:15;8.60;99.90
37002;DHT22;22913;51.910;8.374;2022-11-23T06:11:01;8.60;99.90
37002;DHT22;22913;51.910;8.374;2022-11-23T06:13:47;8.60;99.90
37002;DHT22;22913;51.910;8.374;2022-11-23T06:16:33;8.60;99.90
37002;DHT22;22913;51.910;8.374;2022-11-23T06:19:20;8.60;99.90
37002;DHT22;22913;51.910;8.374;2022-11-23T06:22:06;8.60;99.90
37002;DHT22;22913;51.910;8.374;2022-11-23T06:24:53;8.60;99.90
37002;DHT22;22913;51.910;8.374;2022-11-23T06:27:39;8.60;99.90
37002;DHT22;22913;51.910;8.374;2022-11-23T06:30:26;8.60;99.90
37002;DHT22;22913;51.910;8.374;2022-11-23T06:33:12;8.50;99.90
37002;DHT22;22913;51.910;8.374;2022-11-23T06:36:01;8.40;99.90
37002;DHT22;22913;51.910;8.374;2022-11-23T06:38:48;8.40;99.90
37002;DHT22;22913;51.910;8.374;2022-11-23T06:41:33;8.40;99.90
37002;DHT22;22913;51.910;8.374;2022-11-23T06:44:19;8.40;99.90
37002;DHT22;22913;51.910;8.374;2022-11-23T06:47:04;8.30;99.90
37002;DHT22;22913;51.910;8.374;2022-11-23T06:49:50;8.40;99.90
37002;DHT22;22913;51.910;8.374;2022-11-23T06:52:37;8.30;99.90
37002;DHT22;22913;51.910;8.374;2022-11-23T06:55:22;8.30;99.90
37002;DHT22;22913;51.910;8.374;2022-11-23T06:58:08;8.30;99.90
37002;DHT22;22913;51.910;8.374;2022-11-23T07:00:58;8.30;99.90
37002;DHT22;22913;51.910;8.374;2022-11-23T07:03:44;8.30;99.90
37002;DHT22;22913;51.910;8.374;2022-11-23T07:06:30;8.30;99.90
37002;DHT22;22913;51.910;8.374;2022-11-23T07:09:17;8.20;99.90
37002;DHT22;22913;51.910;8.374;2022-11-23T07:12:03;8.20;99.90
37002;DHT22;22913;51.910;8.374;2022-11-23T07:14:48;8.20;99.90
37002;DHT22;22913;51.910;8.374;2022-11-23T07:17:38;8.20;99.90
37002;DHT22;22913;51.910;8.374;2022-11-23T07:20:24;8.20;99.90
37002;DHT22;22913;51.910;8.374;2022-11-23T07:23:10;8.20;99.90
37002;DHT22;22913;51.910;8.374;2022-11-23T07:25:57;8.10;99.90
37002;DHT22;22913;51.910;8.374;2022-11-23T07:28:43;8.20;99.90
37002;DHT22;22913;51.910;8.374;2022-11-23T07:31:28;8.20;99.90
37002;DHT22;22913;51.910;8.374;2022-11-23T07:34:14;8.20;99.90
37002;DHT22;22913;51.910;8.374;2022-11-23T07:37:00;8.30;99.90
37002;DHT22;22913;51.910;8.374;2022-11-23T07:39:46;8.30;99.90
37002;DHT22;22913;51.910;8.374;2022-11-23T07:42:34;8.40;99.90
37002;DHT22;22913;51.910;8.374;2022-11-23T07:45:20;8.40;99.90
37002;DHT22;22913;51.910;8.374;2022-11-23T07:48:08;8.40;99.90
37002;DHT22;22913;51.910;8.374;2022-11-23T07:50:54;8.40;99.90
37002;DHT22;22913;51.910;8.374;2022-11-23T07:53:40;8.40;99.90
37002;DHT22;22913;51.910;8.374;2022-11-23T07:56:25;8.40;99.90
37002;DHT22;22913;51.910;8.374;2022-11-23T07:59:13;8.50;99.90
37002;DHT22;22913;51.910;8.374;2022-11-23T08:01:58;8.50;99.90
37002;DHT22;22913;51.910;8.374;2022-11-23T08:04:44;8.50;99.90
37002;DHT22;22913;51.910;8.374;2022-11-23T08:07:29;8.50;99.90
37002;DHT22;22913;51.910;8.374;2022-11-23T08:10:15;8.50;99.90
37002;DHT22;22913;51.910;8.374;2022-11-23T08:13:03;8.60;99.90
37002;DHT22;22913;51.910;8.374;2022-11-23T08:15:50;8.60;99.90
37002;DHT22;22913;51.910;8.374;2022-11-23T08:18:35;8.60;99.90
37002;DHT22;22913;51.910;8.374;2022-11-23T08:21:21;8.70;99.90
37002;DHT22;22913;51.910;8.374;2022-11-23T08:24:07;8.80;99.90
37002;DHT22;22913;51.910;8.374;2022-11-23T08:26:52;8.90;99.90
37002;DHT22;22913;51.910;8.374;2022-11-23T08:29:38;8.80;99.90
37002;DHT22;22913;51.910;8.374;2022-11-23T08:32:25;8.90;99.90
37002;DHT22;22913;51.910;8.374;2022-11-23T08:35:10;8.90;99.90
37002;DHT22;22913;51.910;8.374;2022-11-23T08:37:56;8.90;99.90
37002;DHT22;22913;51.910;8.374;2022-11-23T08:40:41;9.00;99.90
37002;DHT22;22913;51.910;8.374;2022-11-23T08:43:27;9.00;99.90
37002;DHT22;22913;51.910;8.374;2022-11-23T08:46:13;9.00;99.90
37002;DHT22;22913;51.910;8.374;2022-11-23T08:49:00;9.10;99.90
37002;DHT22;22913;51.910;8.374;2022-11-23T08:51:45;9.10;99.90
37002;DHT22;22913;51.910;8.374;2022-11-23T08:54:31;9.10;99.90
37002;DHT22;22913;51.910;8.374;2022-11-23T08:57:17;9.20;99.90
37002;DHT22;22913;51.910;8.374;2022-11-23T09:00:03;9.20;99.90
37002;DHT22;22913;51.910;8.374;2022-11-23T09:02:49;9.30;99.90
37002;DHT22;22913;51.910;8.374;2022-11-23T09:05:37;9.30;99.90
37002;DHT22;22913;51.910;8.374;2022-11-23T09:08:23;9.30;99.90
37002;DHT22;22913;51.910;8.374;2022-11-23T09:11:11;9.40;99.90
37002;DHT22;22913;51.910;8.374;2022-11-23T09:13:57;9.40;99.90
37002;DHT22;22913;51.910;8.374;2022-11-23T09:16:43;9.50;99.90
37002;DHT22;22913;51.910;8.374;2022-11-23T09:19:28;9.50;99.90
37002;DHT22;22913;51.910;8.374;2022-11-23T09:22:15;9.60;99.90
37002;DHT22;22913;51.910;8.374;2022-11-23T09:25:00;9.70;99.90
37002;DHT22;22913;51.910;8.374;2022-11-23T09:27:46;9.70;99.90
37002;DHT22;22913;51.910;8.374;2022-11-23T09:30:32;9.70;99.90
37002;DHT22;22913;51.910;8.374;2022-11-23T09:33:18;9.80;99.90
37002;DHT22;22913;51.910;8.374;2022-11-23T09:36:04;9.80;99.90
37002;DHT22;22913;51.910;8.374;2022-11-23T09:38:51;9.90;99.90
37002;DHT22;22913;51.910;8.374;2022-11-23T09:42:04;10.00;99.90
37002;DHT22;22913;51.910;8.374;2022-11-23T09:45:07;10.10;99.90
37002;DHT22;22913;51.910;8.374;2022-11-23T09:48:10;10.20;99.90
37002;DHT22;22913;51.910;8.374;2022-11-23T09:51:00;10.20;99.90
37002;DHT22;22913;51.910;8.374;2022-11-23T09:53:51;10.30;99.90
37002;DHT22;22913;51.910;8.374;2022-11-23T09:56:38;10.40;99.90
37002;DHT22;22913;51.910;8.374;2022-11-23T09:59:35;10.40;99.90
37002;DHT22;22913;51.910;8.374;2022-11-23T10:02:22;10.50;99.90
37002;DHT22;22913;51.910;8.374;2022-11-23T10:05:16;10.60;99.90
37002;DHT22;22913;51.910;8.374;2022-11-23T10:08:08;10.70;99.90
37002;DHT22;22913;51.910;8.374;2022-11-23T10:11:06;10.70;99.90
37002;DHT22;22913;51.910;8.374;2022-11-23T10:14:05;10.80;99.90
37002;DHT22;22913;51.910;8.374;2022-11-23T10:16:57;10.90;99.90
37002;DHT22;22913;51.910;8.374;2022-11-23T10:19:57;11.00;99.90
37002;DHT22;22913;51.910;8.374;2022-11-23T10:22:51;11.10;99.90
37002;DHT22;22913;51.910;8.374;2022-11-23T10:25:45;11.20;99.90
37002;DHT22;22913;51.910;8.374;2022-11-23T10:28:32;11.30;99.90
37002;DHT22;22913;51.910;8.374;2022-11-23T10:31:20;11.50;99.90
37002;DHT22;22913;51.910;8.374;2022-11-23T10:34:09;11.70;99.90
37002;DHT22;22913;51.910;8.374;2022-11-23T10:36:55;11.80;99.90
37002;DHT22;22913;51.910;8.374;2022-11-23T10:39:40;11.80;99.90
37002;DHT22;22913;51.910;8.374;2022-11-23T10:42:30;12.00;99.90
37002;DHT22;22913;51.910;8.374;2022-11-23T10:45:23;12.20;99.90
37002;DHT22;22913;51.910;8.374;2022-11-23T10:48:12;12.60;99.90
37002;DHT22;22913;51.910;8.374;2022-11-23T10:51:13;13.00;99.90
37002;DHT22;22913;51.910;8.374;2022-11-23T10:54:04;13.10;99.90
37002;DHT22;22913;51.910;8.374;2022-11-23T10:56:53;13.30;99.90
37002;DHT22;22913;51.910;8.374;2022-11-23T10:59:38;13.50;99.90
37002;DHT22;22913;51.910;8.374;2022-11-23T11:02:26;13.60;99.90
37002;DHT22;22913;51.910;8.374;2022-11-23T11:05:25;14.20;99.90
37002;DHT22;22913;51.910;8.374;2022-11-23T11:08:16;14.40;99.90
37002;DHT22;22913;51.910;8.374;2022-11-23T11:11:04;14.70;99.90
37002;DHT22;22913;51.910;8.374;2022-11-23T11:13:50;15.00;99.90
37002;DHT22;22913;51.910;8.374;2022-11-23T11:16:45;14.80;99.90
37002;DHT22;22913;51.910;8.374;2022-11-23T11:19:34;14.60;99.90
37002;DHT22;22913;51.910;8.374;2022-11-23T11:22:27;14.90;99.90
37002;DHT22;22913;51.910;8.374;2022-11-23T11:25:26;15.00;99.90
37002;DHT22;22913;51.910;8.374;2022-11-23T11:28:23;14.80;99.90
37002;DHT22;22913;51.910;8.374;2022-11-23T11:31:44;14.90;99.90
37002;DHT22;22913;51.910;8.374;2022-11-23T11:34:37;15.10;99.90
37002;DHT22;22913;51.910;8.374;2022-11-23T11:37:32;15.00;99.90
37002;DHT22;22913;51.910;8.374;2022-11-23T11:40:23;15.10;99.90
37002;DHT22;22913;51.910;8.374;2022-11-23T11:43:13;15.20;99.90
37002;DHT22;22913;51.910;8.374;2022-11-23T11:46:03;15.20;99.90
37002;DHT22;22913;51.910;8.374;2022-11-23T11:48:52;15.20;99.90
37002;DHT22;22913;51.910;8.374;2022-11-23T11:51:42;14.90;99.90
37002;DHT22;22913;51.910;8.374;2022-11-23T11:54:31;14.50;99.90
37002;DHT22;22913;51.910;8.374;2022-11-23T11:57:24;14.60;99.90
37002;DHT22;22913;51.910;8.374;2022-11-23T12:00:15;14.90;99.90
37002;DHT22;22913;51.910;8.374;2022-11-23T12:03:08;15.10;99.90
37002;DHT22;22913;51.910;8.374;2022-11-23T12:06:01;15.50;99.90
37002;DHT22;22913;51.910;8.374;2022-11-23T12:08:53;16.00;99.90
37002;DHT22;22913;51.910;8.374;2022-11-23T12:11:40;15.80;99.90
37002;DHT22;22913;51.910;8.374;2022-11-23T12:14:26;15.60;99.90
37002;DHT22;22913;51.910;8.374;2022-11-23T12:20:38;15.70;99.90
37002;DHT22;22913;51.910;8.374;2022-11-23T12:23:36;15.90;99.90
37002;DHT22;22913;51.910;8.374;2022-11-23T12:26:31;16.00;99.90
37002;DHT22;22913;51.910;8.374;2022-11-23T12:29:27;16.00;99.90
37002;DHT22;22913;51.910;8.374;2022-11-23T12:32:24;16.30;99.90
37002;DHT22;22913;51.910;8.374;2022-11-23T12:35:26;16.50;99.90
37002;DHT22;22913;51.910;8.374;2022-11-23T12:38:26;17.00;99.90
37002;DHT22;22913;51.910;8.374;2022-11-23T12:41:29;17.00;99.90
37002;DHT22;22913;51.910;8.374;2022-11-23T12:47:48;17.20;99.90
37002;DHT22;22913;51.910;8.374;2022-11-23T12:50:41;17.10;99.90
37002;DHT22;22913;51.910;8.374;2022-11-23T12:53:36;17.30;99.90
37002;DHT22;22913;51.910;8.374;2022-11-23T12:56:42;17.00;99.90
37002;DHT22;22913;51.910;8.374;2022-11-23T12:59:38;17.40;99.90
37002;DHT22;22913;51.910;8.374;2022-11-23T13:02:49;18.10;99.90
37002;DHT22;22913;51.910;8.374;2022-11-23T13:05:59;18.30;99.90
37002;DHT22;22913;51.910;8.374;2022-11-23T13:09:01;18.20;99.90
37002;DHT22;22913;51.910;8.374;2022-11-23T13:12:02;18.20;99.90
37002;DHT22;22913;51.910;8.374;2022-11-23T13:14:58;19.10;99.90
37002;DHT22;22913;51.910;8.374;2022-11-23T13:17:54;19.30;99.90
37002;DHT22;22913;51.910;8.374;2022-11-23T13:20:56;19.30;99.90
37002;DHT22;22913;51.910;8.374;2022-11-23T13:23:47;18.80;99.90
37002;DHT22;22913;51.910;8.374;2022-11-23T13:26:32;18.50;99.90
37002;DHT22;22913;51.910;8.374;2022-11-23T13:29:52;18.90;99.90
37002;DHT22;22913;51.910;8.374;2022-11-23T13:33:00;19.00;99.90
37002;DHT22;22913;51.910;8.374;2022-11-23T13:36:01;18.50;99.90
37002;DHT22;22913;51.910;8.374;2022-11-23T13:38:47;18.40;99.90
37002;DHT22;22913;51.910;8.374;2022-11-23T13:41:58;17.80;99.90
37002;DHT22;22913;51.910;8.374;2022-11-23T13:44:44;17.50;99.90
37002;DHT22;22913;51.910;8.374;2022-11-23T13:47:31;17.30;99.90
37002;DHT22;22913;51.910;8.374;2022-11-23T13:50:17;17.50;99.90
37002;DHT22;22913;51.910;8.374;2022-11-23T13:53:04;17.40;99.90
37002;DHT22;22913;51.910;8.374;2022-11-23T13:56:33;17.50;99.90
37002;DHT22;22913;51.910;8.374;2022-11-23T13:59:27;17.70;99.90
37002;DHT22;22913;51.910;8.374;2022-11-23T14:02:25;17.60;99.90
37002;DHT22;22913;51.910;8.374;2022-11-23T14:05:54;17.90;99.90
37002;DHT22;22913;51.910;8.374;2022-11-23T14:08:43;17.90;99.90
37002;DHT22;22913;51.910;8.374;2022-11-23T14:11:38;17.80;99.90
37002;DHT22;22913;51.910;8.374;2022-11-23T14:14:30;17.70;99.90
37002;DHT22;22913;51.910;8.374;2022-11-23T14:17:39;17.60;99.90
37002;DHT22;22913;51.910;8.374;2022-11-23T14:20:43;17.90;99.90
37002;DHT22;22913;51.910;8.374;2022-11-23T14:27:07;18.10;99.90
37002;DHT22;22913;51.910;8.374;2022-11-23T14:30:04;18.00;99.90
37002;DHT22;22913;51.910;8.374;2022-11-23T14:33:00;17.70;99.90
37002;DHT22;22913;51.910;8.374;2022-11-23T14:35:53;17.20;99.90
37002;DHT22;22913;51.910;8.374;2022-11-23T14:39:00;17.00;99.90
37002;DHT22;22913;51.910;8.374;2022-11-23T14:41:50;16.50;99.90
37002;DHT22;22913;51.910;8.374;2022-11-23T14:44:39;16.20;99.90
37002;DHT22;22913;51.910;8.374;2022-11-23T14:47:26;16.00;99.90
37002;DHT22;22913;51.910;8.374;2022-11-23T14:50:24;15.80;99.90
37002;DHT22;22913;51.910;8.374;2022-11-23T14:53:10;15.40;99.90
37002;DHT22;22913;51.910;8.374;2022-11-23T14:55:56;14.90;99.90
37002;DHT22;22913;51.910;8.374;2022-11-23T14:58:41;14.60;99.90
37002;DHT22;22913;51.910;8.374;2022-11-23T15:01:28;14.20;99.90
37002;DHT22;22913;51.910;8.374;2022-11-23T15:04:22;13.90;99.90
37002;DHT22;22913;51.910;8.374;2022-11-23T15:07:11;13.50;99.90
37002;DHT22;22913;51.910;8.374;2022-11-23T15:10:05;13.30;99.90
37002;DHT22;22913;51.910;8.374;2022-11-23T15:12:52;12.90;99.90
37002;DHT22;22913;51.910;8.374;2022-11-23T15:15:44;12.60;99.90
37002;DHT22;22913;51.910;8.374;2022-11-23T15:18:33;12.10;99.90
37002;DHT22;22913;51.910;8.374;2022-11-23T15:21:21;11.90;99.90
37002;DHT22;22913;51.910;8.374;2022-11-23T15:24:19;11.80;99.90
37002;DHT22;22913;51.910;8.374;2022-11-23T15:27:05;11.60;99.90
37002;DHT22;22913;51.910;8.374;2022-11-23T15:29:51;11.30;99.90
37002;DHT22;22913;51.910;8.374;2022-11-23T15:32:37;11.10;99.90
37002;DHT22;22913;51.910;8.374;2022-11-23T15:35:26;10.90;99.90
37002;DHT22;22913;51.910;8.374;2022-11-23T15:38:14;10.90;99.90
37002;DHT22;22913;51.910;8.374;2022-11-23T15:41:00;10.70;99.90
37002;DHT22;22913;51.910;8.374;2022-11-23T15:43:52;10.60;99.90
37002;DHT22;22913;51.910;8.374;2022-11-23T15:46:38;10.50;99.90
37002;DHT22;22913;51.910;8.374;2022-11-23T15:49:24;10.40;99.90
37002;DHT22;22913;51.910;8.374;2022-11-23T15:52:13;10.30;99.90
37002;DHT22;22913;51.910;8.374;2022-11-23T15:55:02;10.20;99.90
37002;DHT22;22913;51.910;8.374;2022-11-23T15:57:51;10.10;99.90
37002;DHT22;22913;51.910;8.374;2022-11-23T16:00:37;10.00;99.90
37002;DHT22;22913;51.910;8.374;2022-11-23T16:03:30;10.00;99.90
37002;DHT22;22913;51.910;8.374;2022-11-23T16:06:21;9.90;99.90
37002;DHT22;22913;51.910;8.374;2022-11-23T16:12:22;9.70;99.90
37002;DHT22;22913;51.910;8.374;2022-11-23T16:18:17;9.60;99.90
37002;DHT22;22913;51.910;8.374;2022-11-23T16:21:03;9.60;99.90
37002;DHT22;22913;51.910;8.374;2022-11-23T16:23:49;9.60;99.90
37002;DHT22;22913;51.910;8.374;2022-11-23T16:26:37;9.50;99.90
37002;DHT22;22913;51.910;8.374;2022-11-23T16:29:24;9.50;99.90
37002;DHT22;22913;51.910;8.374;2022-11-23T16:32:19;9.40;99.90
37002;DHT22;22913;51.910;8.374;2022-11-23T16:35:12;9.40;99.90
37002;DHT22;22913;51.910;8.374;2022-11-23T16:37:58;9.30;99.90
37002;DHT22;22913;51.910;8.374;2022-11-23T16:40:44;9.20;99.90
37002;DHT22;22913;51.910;8.374;2022-11-23T16:43:30;9.20;99.90
37002;DHT22;22913;51.910;8.374;2022-11-23T16:46:17;9.20;99.90
37002;DHT22;22913;51.910;8.374;2022-11-23T16:49:02;9.10;99.90
37002;DHT22;22913;51.910;8.374;2022-11-23T16:51:48;9.00;99.90
37002;DHT22;22913;51.910;8.374;2022-11-23T16:54:37;9.00;99.90
37002;DHT22;22913;51.910;8.374;2022-11-23T16:57:23;8.90;99.90
37002;DHT22;22913;51.910;8.374;2022-11-23T17:00:15;8.80;99.90
37002;DHT22;22913;51.910;8.374;2022-11-23T17:03:02;8.80;99.90
37002;DHT22;22913;51.910;8.374;2022-11-23T17:05:47;8.80;99.90
37002;DHT22;22913;51.910;8.374;2022-11-23T17:08:32;8.70;99.90
37002;DHT22;22913;51.910;8.374;2022-11-23T17:11:18;8.70;99.90
37002;DHT22;22913;51.910;8.374;2022-11-23T17:14:04;8.70;99.90
37002;DHT22;22913;51.910;8.374;2022-11-23T17:16:49;8.70;99.90
37002;DHT22;22913;51.910;8.374;2022-11-23T17:19:37;8.70;99.90
37002;DHT22;22913;51.910;8.374;2022-11-23T17:22:23;8.70;99.90
37002;DHT22;22913;51.910;8.374;2022-11-23T17:25:10;8.70;99.90
37002;DHT22;22913;51.910;8.374;2022-11-23T17:27:56;8.70;99.90
37002;DHT22;22913;51.910;8.374;2022-11-23T17:30:43;8.70;99.90
37002;DHT22;22913;51.910;8.374;2022-11-23T17:33:28;8.80;99.90
37002;DHT22;22913;51.910;8.374;2022-11-23T17:36:16;8.80;99.90
37002;DHT22;22913;51.910;8.374;2022-11-23T17:39:01;8.80;99.90
37002;DHT22;22913;51.910;8.374;2022-11-23T17:41:47;8.80;99.90
37002;DHT22;22913;51.910;8.374;2022-11-23T17:44:32;8.80;99.90
37002;DHT22;22913;51.910;8.374;2022-11-23T17:47:22;8.90;99.90
37002;DHT22;22913;51.910;8.374;2022-11-23T17:50:10;8.80;99.90
37002;DHT22;22913;51.910;8.374;2022-11-23T17:52:58;8.80;99.90
37002;DHT22;22913;51.910;8.374;2022-11-23T17:55:43;8.80;99.90
37002;DHT22;22913;51.910;8.374;2022-11-23T17:58:28;8.80;99.90
37002;DHT22;22913;51.910;8.374;2022-11-23T18:01:15;8.90;99.90
37002;DHT22;22913;51.910;8.374;2022-11-23T18:04:01;8.90;99.90
37002;DHT22;22913;51.910;8.374;2022-11-23T18:06:47;8.80;99.90
37002;DHT22;22913;51.910;8.374;2022-11-23T18:09:34;8.80;99.90
37002;DHT22;22913;51.910;8.374;2022-11-23T18:12:20;8.80;99.90
37002;DHT22;22913;51.910;8.374;2022-11-23T18:15:06;8.70;99.90